createdAt,value
2023-05-09T00:00:37.472Z,4.38
2023-05-09T00:03:06.158Z,4.80
2023-05-09T00:05:33.939Z,4.30
2023-05-09T00:08:01.345Z,4.50
2023-05-09T00:10:29.055Z,4.05
2023-05-09T00:12:57.254Z,4.68
2023-05-09T00:15:26.123Z,4.22
2023-05-09T00:17:54.739Z,3.92
2023-05-09T00:20:22.261Z,4.90
2023-05-09T00:22:49.738Z,5.10
2023-05-09T00:25:17.541Z,4.38
2023-05-09T00:27:45.169Z,4.40
2023-05-09T00:30:13.103Z,4.28
2023-05-09T00:32:41.674Z,4.72
2023-05-09T00:35:10.343Z,4.43
2023-05-09T00:37:37.868Z,4.93
2023-05-09T00:40:07.702Z,4.80
2023-05-09T00:42:36.208Z,4.32
2023-05-09T00:45:04.012Z,4.55
2023-05-09T00:47:31.810Z,5.35
2023-05-09T00:49:59.789Z,4.65
2023-05-09T00:52:27.737Z,4.90
2023-05-09T00:54:56.019Z,4.80
2023-05-09T00:57:23.721Z,4.78
2023-05-09T00:59:51.456Z,5.07
2023-05-09T01:02:19.349Z,5.00
2023-05-09T01:04:47.410Z,4.95
2023-05-09T01:07:35.344Z,4.85
2023-05-09T01:10:11.796Z,4.88
2023-05-09T01:13:03.511Z,4.57
2023-05-09T01:15:36.739Z,5.03
2023-05-09T01:18:04.357Z,4.80
2023-05-09T01:20:56.690Z,4.95
2023-05-09T01:23:30.449Z,4.68
2023-05-09T01:26:05.687Z,4.95
2023-05-09T01:28:51.945Z,4.50
2023-05-09T01:31:20.552Z,4.82
2023-05-09T01:33:56.786Z,5.10
2023-05-09T01:36:29.731Z,4.78
2023-05-09T01:38:58.761Z,5.50
2023-05-09T01:41:30.922Z,4.82
2023-05-09T01:44:01.228Z,4.35
2023-05-09T01:46:29.565Z,4.68
2023-05-09T01:48:58.349Z,4.57
2023-05-09T01:51:27.165Z,4.90
2023-05-09T01:53:56.993Z,4.55
2023-05-09T01:56:25.910Z,4.60
2023-05-09T01:58:56.209Z,4.80
2023-05-09T02:01:24.661Z,4.82
2023-05-09T02:03:53.382Z,4.47
2023-05-09T02:06:23.482Z,4.50
2023-05-09T02:08:51.860Z,3.92
2023-05-09T02:11:19.356Z,4.07
2023-05-09T02:13:46.993Z,4.07
2023-05-09T02:16:14.590Z,4.50
2023-05-09T02:18:42.134Z,3.90
2023-05-09T02:21:09.742Z,4.05
2023-05-09T02:23:37.267Z,3.58
2023-05-09T02:26:04.808Z,3.80
2023-05-09T02:28:33.213Z,3.47
2023-05-09T02:31:04.561Z,3.70
2023-05-09T02:33:34.994Z,3.53
2023-05-09T02:36:03.040Z,3.38
2023-05-09T02:38:30.526Z,3.60
2023-05-09T02:40:58.184Z,3.78
2023-05-09T02:43:27.462Z,3.08
2023-05-09T02:45:55.987Z,3.33
2023-05-09T02:48:23.469Z,3.17
2023-05-09T02:50:51.014Z,3.40
2023-05-09T02:53:18.516Z,3.67
2023-05-09T02:55:46.197Z,3.50
2023-05-09T02:58:14.958Z,3.63
2023-05-09T03:00:44.360Z,3.00
2023-05-09T03:03:13.978Z,3.35
2023-05-09T03:05:41.570Z,3.33
2023-05-09T03:08:09.209Z,3.33
2023-05-09T03:10:36.812Z,3.90
2023-05-09T03:13:04.369Z,3.42
2023-05-09T03:15:32.021Z,3.72
2023-05-09T03:18:00.732Z,3.08
2023-05-09T03:20:28.268Z,3.60
2023-05-09T03:22:56.221Z,3.28
2023-05-09T03:25:24.695Z,3.15
2023-05-09T03:27:52.143Z,3.22
2023-05-09T03:30:19.836Z,3.38
2023-05-09T03:32:49.369Z,3.50
2023-05-09T03:35:17.276Z,3.58
2023-05-09T03:37:45.061Z,2.95
2023-05-09T03:40:12.751Z,4.07
2023-05-09T03:42:51.923Z,3.28
2023-05-09T03:45:19.447Z,3.70
2023-05-09T03:47:48.147Z,3.00
2023-05-09T03:50:16.319Z,3.25
2023-05-09T03:52:44.881Z,3.10
2023-05-09T03:55:16.031Z,3.30
2023-05-09T03:57:44.204Z,2.83
2023-05-09T04:00:12.673Z,2.85
2023-05-09T04:02:50.344Z,3.08
2023-05-09T04:05:27.433Z,3.08
2023-05-09T04:07:56.179Z,3.22
2023-05-09T04:10:25.487Z,3.05
2023-05-09T04:12:53.984Z,3.17
2023-05-09T04:15:21.510Z,3.10
2023-05-09T04:17:49.615Z,3.60
2023-05-09T04:20:17.222Z,3.50
2023-05-09T04:22:46.820Z,3.33
2023-05-09T04:25:17.122Z,2.65
2023-05-09T04:27:46.297Z,3.08
2023-05-09T04:30:14.447Z,2.85
2023-05-09T04:32:46.339Z,2.65
2023-05-09T04:35:17.473Z,3.08
2023-05-09T04:37:48.867Z,3.08
2023-05-09T04:40:17.250Z,3.17
2023-05-09T04:42:52.660Z,3.17
2023-05-09T04:45:23.497Z,3.03
2023-05-09T04:47:51.836Z,3.00
2023-05-09T04:50:19.381Z,3.13
2023-05-09T04:52:46.939Z,2.85
2023-05-09T04:55:14.624Z,3.75
2023-05-09T04:57:45.753Z,2.85
2023-05-09T05:00:13.815Z,2.97
2023-05-09T05:02:41.934Z,3.47
2023-05-09T05:05:17.904Z,3.22
2023-05-09T05:07:45.626Z,3.30
2023-05-09T05:10:18.914Z,3.00
2023-05-09T05:12:51.045Z,3.50
2023-05-09T05:15:19.728Z,3.25
2023-05-09T05:17:48.679Z,2.92
2023-05-09T05:20:19.751Z,3.15
2023-05-09T05:22:47.633Z,3.35
2023-05-09T05:25:15.567Z,3.53
2023-05-09T05:27:45.424Z,3.10
2023-05-09T05:30:15.761Z,3.42
2023-05-09T05:32:44.420Z,3.38
2023-05-09T05:35:14.122Z,3.53
2023-05-09T05:37:42.433Z,3.30
2023-05-09T05:40:10.487Z,3.33
2023-05-09T05:42:40.884Z,3.70
2023-05-09T05:45:09.280Z,2.85
2023-05-09T05:47:40.078Z,3.20
2023-05-09T05:50:11.700Z,3.13
2023-05-09T05:52:40.243Z,3.33
2023-05-09T05:55:09.631Z,3.30
2023-05-09T05:57:39.266Z,2.97
2023-05-09T06:00:11.428Z,3.22
2023-05-09T06:02:45.878Z,3.13
2023-05-09T06:05:21.168Z,3.17
2023-05-09T06:07:48.732Z,3.33
2023-05-09T06:10:17.261Z,3.40
2023-05-09T06:12:46.292Z,3.13
2023-05-09T06:15:14.046Z,3.30
2023-05-09T06:17:45.541Z,3.42
2023-05-09T06:20:13.097Z,3.65
2023-05-09T06:22:40.658Z,3.33
2023-05-09T06:25:10.634Z,3.33
2023-05-09T06:27:38.537Z,3.03
2023-05-09T06:30:23.890Z,3.00
2023-05-09T06:32:54.769Z,3.33
2023-05-09T06:35:22.471Z,2.85
2023-05-09T06:37:50.405Z,3.33
2023-05-09T06:40:17.945Z,2.90
2023-05-09T06:42:45.632Z,3.47
2023-05-09T06:45:13.551Z,2.97
2023-05-09T06:47:41.232Z,3.30
2023-05-09T06:50:09.294Z,3.45
2023-05-09T06:52:36.829Z,3.75
2023-05-09T06:55:04.633Z,3.45
2023-05-09T06:57:32.624Z,3.80
2023-05-09T07:00:00.063Z,3.50
2023-05-09T07:02:27.664Z,3.58
2023-05-09T07:04:55.281Z,3.47
2023-05-09T07:07:22.758Z,3.30
2023-05-09T07:09:53.009Z,3.42
2023-05-09T07:12:22.927Z,3.33
2023-05-09T07:14:50.319Z,3.40
2023-05-09T07:17:23.563Z,3.50
2023-05-09T07:19:52.012Z,3.25
2023-05-09T07:22:19.609Z,3.20
2023-05-09T07:24:47.321Z,3.17
2023-05-09T07:27:14.836Z,3.30
2023-05-09T07:29:42.957Z,3.10
2023-05-09T07:32:10.478Z,3.33
2023-05-09T07:34:38.050Z,3.78
2023-05-09T07:37:05.441Z,3.30
2023-05-09T07:39:33.011Z,3.63
2023-05-09T07:42:00.414Z,3.05
2023-05-09T07:44:28.043Z,3.53
2023-05-09T07:47:02.707Z,3.50
2023-05-09T07:49:30.250Z,3.33
2023-05-09T07:51:57.913Z,2.97
2023-05-09T07:54:25.562Z,3.38
2023-05-09T07:56:53.371Z,3.38
2023-05-09T07:59:21.038Z,3.20
2023-05-09T08:01:48.810Z,3.20
2023-05-09T08:04:16.636Z,3.35
2023-05-09T08:06:44.193Z,2.90
2023-05-09T08:09:11.768Z,3.28
2023-05-09T08:11:39.531Z,3.22
2023-05-09T08:14:07.021Z,3.40
2023-05-09T08:16:34.544Z,3.00
2023-05-09T08:19:21.252Z,3.30
2023-05-09T08:21:48.752Z,3.42
2023-05-09T08:24:16.146Z,3.22
2023-05-09T08:26:44.369Z,3.33
2023-05-09T08:29:12.231Z,3.58
2023-05-09T08:31:39.824Z,3.20
2023-05-09T08:34:07.330Z,3.33
2023-05-09T08:36:34.856Z,3.33
2023-05-09T08:39:02.612Z,3.40
2023-05-09T08:41:36.061Z,3.58
2023-05-09T08:44:04.793Z,3.00
2023-05-09T08:46:37.337Z,3.55
2023-05-09T08:49:08.818Z,3.38
2023-05-09T08:51:38.258Z,3.03
2023-05-09T08:54:05.977Z,3.40
2023-05-09T08:56:35.404Z,4.20
2023-05-09T08:59:04.461Z,3.38
2023-05-09T09:01:33.865Z,3.90
2023-05-09T09:04:03.107Z,3.47
2023-05-09T09:06:33.515Z,3.20
2023-05-09T09:09:01.682Z,3.17
2023-05-09T09:11:30.492Z,3.00
2023-05-09T09:14:02.145Z,3.40
2023-05-09T09:16:30.285Z,3.55
2023-05-09T09:18:59.122Z,3.05
2023-05-09T09:21:27.487Z,3.40
2023-05-09T09:23:56.890Z,3.58
2023-05-09T09:26:25.081Z,3.40
2023-05-09T09:28:53.139Z,3.45
2023-05-09T09:31:24.497Z,3.78
2023-05-09T09:33:52.274Z,3.75
2023-05-09T09:36:30.648Z,3.88
2023-05-09T09:39:06.955Z,3.03
2023-05-09T09:41:36.568Z,2.92
2023-05-09T09:44:15.694Z,3.17
2023-05-09T09:46:56.211Z,3.50
2023-05-09T09:49:26.342Z,3.33
2023-05-09T09:51:58.551Z,4.35
2023-05-09T09:54:27.804Z,3.30
2023-05-09T09:56:56.718Z,3.70
2023-05-09T09:59:25.945Z,3.25
2023-05-09T10:02:07.560Z,3.20
2023-05-09T10:04:37.824Z,3.17
2023-05-09T10:07:07.531Z,2.92
2023-05-09T10:09:38.083Z,3.10
2023-05-09T10:12:08.458Z,2.67
2023-05-09T10:14:38.477Z,2.78
2023-05-09T10:17:06.563Z,2.85
2023-05-09T10:19:38.212Z,2.00
2023-05-09T10:22:10.451Z,2.88
2023-05-09T10:24:49.091Z,2.85
2023-05-09T10:27:22.229Z,3.10
2023-05-09T10:29:55.779Z,2.40
2023-05-09T10:32:46.523Z,2.75
2023-05-09T10:35:17.331Z,3.20
2023-05-09T10:37:48.212Z,2.78
2023-05-09T10:40:16.098Z,2.13
2023-05-09T10:42:44.192Z,2.40
2023-05-09T10:45:15.389Z,2.45
2023-05-09T10:47:45.428Z,2.40
2023-05-09T10:50:13.929Z,2.20
2023-05-09T10:53:09.202Z,2.58
2023-05-09T10:55:56.726Z,2.65
2023-05-09T10:58:29.907Z,2.88
2023-05-09T11:00:59.823Z,2.07
2023-05-09T11:03:30.744Z,2.10
2023-05-09T11:05:59.030Z,2.13
2023-05-09T11:08:31.074Z,2.17
2023-05-09T11:11:04.109Z,2.50
2023-05-09T11:13:33.602Z,2.17
2023-05-09T11:16:01.327Z,2.50
2023-05-09T11:18:29.836Z,2.30
2023-05-09T11:20:57.338Z,2.25
2023-05-09T11:23:30.828Z,2.58
2023-05-09T11:26:06.756Z,2.33
2023-05-09T11:28:38.649Z,2.10
2023-05-09T11:31:15.246Z,2.30
2023-05-09T11:33:47.865Z,2.15
2023-05-09T11:36:18.944Z,2.03
2023-05-09T11:38:47.459Z,1.75
2023-05-09T11:41:16.048Z,1.75
2023-05-09T11:43:46.895Z,2.30
2023-05-09T11:46:14.430Z,2.38
2023-05-09T11:48:44.928Z,1.90
2023-05-09T11:51:19.487Z,2.40
2023-05-09T11:53:50.637Z,2.20
2023-05-09T11:56:18.365Z,2.30
2023-05-09T11:58:46.957Z,2.50
2023-05-09T12:01:14.716Z,2.15
2023-05-09T12:03:44.384Z,2.35
2023-05-09T12:06:19.204Z,2.03
2023-05-09T12:08:47.720Z,2.10
2023-05-09T12:11:15.543Z,2.42
2023-05-09T12:13:50.506Z,2.50
2023-05-09T12:16:19.186Z,2.50
2023-05-09T12:18:47.470Z,2.13
2023-05-09T12:21:15.837Z,2.00
2023-05-09T12:23:43.719Z,2.17
2023-05-09T12:26:11.242Z,2.00
2023-05-09T12:28:39.430Z,1.67
2023-05-09T12:31:07.556Z,2.55
2023-05-09T12:33:37.174Z,2.25
2023-05-09T12:36:11.336Z,2.30
2023-05-09T12:38:39.242Z,2.30
2023-05-09T12:41:15.479Z,2.78
2023-05-09T12:43:56.484Z,2.55
2023-05-09T12:46:24.393Z,2.28
2023-05-09T12:48:51.983Z,2.17
2023-05-09T12:51:21.049Z,2.25
2023-05-09T12:53:48.913Z,2.60
2023-05-09T12:56:23.558Z,2.65
2023-05-09T12:58:53.255Z,2.72
2023-05-09T13:01:23.828Z,2.45
2023-05-09T13:03:53.366Z,2.60
2023-05-09T13:06:21.437Z,2.08
2023-05-09T13:08:59.189Z,2.38
2023-05-09T13:11:27.014Z,2.40
2023-05-09T13:13:55.319Z,2.30
2023-05-09T13:16:23.102Z,2.33
2023-05-09T13:18:50.819Z,2.20
2023-05-09T13:21:18.381Z,2.60
2023-05-09T13:23:45.891Z,2.72
2023-05-09T13:26:13.368Z,2.92
2023-05-09T13:28:40.875Z,2.30
2023-05-09T13:31:08.527Z,2.40
2023-05-09T13:33:36.167Z,2.72
2023-05-09T13:36:04.050Z,2.47
2023-05-09T13:38:32.397Z,2.40
2023-05-09T13:41:00.375Z,2.70
2023-05-09T13:43:27.821Z,2.30
2023-05-09T13:45:55.361Z,2.42
2023-05-09T13:48:22.827Z,2.42
2023-05-09T13:50:50.857Z,2.67
2023-05-09T13:53:18.443Z,2.22
2023-05-09T13:55:46.445Z,3.45
2023-05-09T13:58:14.029Z,3.22
2023-05-09T14:00:41.988Z,2.85
2023-05-09T14:03:09.587Z,2.88
2023-05-09T14:05:37.227Z,2.88
2023-05-09T14:08:04.971Z,2.85
2023-05-09T14:10:32.538Z,3.00
2023-05-09T14:13:00.162Z,3.00
2023-05-09T14:15:27.922Z,2.50
2023-05-09T14:17:55.439Z,3.00
2023-05-09T14:20:23.039Z,2.90
2023-05-09T14:22:50.573Z,3.00
2023-05-09T14:25:18.077Z,2.55
2023-05-09T14:27:45.675Z,3.38
2023-05-09T14:30:15.653Z,3.20
2023-05-09T14:32:43.480Z,3.10
2023-05-09T14:35:11.083Z,3.00
2023-05-09T14:37:38.773Z,3.05
2023-05-09T14:40:07.201Z,2.90
2023-05-09T14:42:35.635Z,3.20
2023-05-09T14:45:03.241Z,2.95
2023-05-09T14:47:30.855Z,3.05
2023-05-09T14:49:58.615Z,3.10
2023-05-09T14:52:26.246Z,3.45
2023-05-09T14:54:53.720Z,2.97
2023-05-09T14:57:21.806Z,3.17
2023-05-09T14:59:49.313Z,3.00
2023-05-09T15:02:16.840Z,3.20
2023-05-09T15:04:45.047Z,3.20
2023-05-09T15:07:12.734Z,3.05
2023-05-09T15:09:40.247Z,3.15
2023-05-09T15:12:07.892Z,2.85
2023-05-09T15:14:35.373Z,3.50
2023-05-09T15:17:04.448Z,3.50
2023-05-09T15:19:32.667Z,3.13
2023-05-09T15:22:00.787Z,3.38
2023-05-09T15:24:28.273Z,3.72
2023-05-09T15:26:56.124Z,3.47
2023-05-09T15:29:23.619Z,3.28
2023-05-09T15:31:51.469Z,3.72
2023-05-09T15:34:19.066Z,3.10
2023-05-09T15:36:46.817Z,3.22
2023-05-09T15:39:14.385Z,3.25
2023-05-09T15:41:42.160Z,3.10
2023-05-09T15:44:11.040Z,3.38
2023-05-09T15:46:38.571Z,3.50
2023-05-09T15:49:06.126Z,3.25
2023-05-09T15:51:33.543Z,3.25
2023-05-09T15:54:01.134Z,3.38
2023-05-09T15:56:28.625Z,2.72
2023-05-09T15:58:56.116Z,2.97
2023-05-09T16:01:23.610Z,3.50
2023-05-09T16:03:51.461Z,3.20
2023-05-09T16:06:19.192Z,3.25
2023-05-09T16:08:47.698Z,3.22
2023-05-09T16:11:15.260Z,3.40
2023-05-09T16:13:42.714Z,3.05
2023-05-09T16:16:10.276Z,3.20
2023-05-09T16:18:38.173Z,3.10
2023-05-09T16:21:05.796Z,3.15
2023-05-09T16:23:33.822Z,2.95
2023-05-09T16:26:01.353Z,3.00
2023-05-09T16:28:29.575Z,3.28
2023-05-09T16:30:57.390Z,2.80
2023-05-09T16:33:24.995Z,3.30
2023-05-09T16:35:52.478Z,2.65
2023-05-09T16:38:20.056Z,2.88
2023-05-09T16:40:47.632Z,3.17
2023-05-09T16:43:16.570Z,2.97
2023-05-09T16:45:44.053Z,2.72
2023-05-09T16:48:11.598Z,2.85
2023-05-09T16:50:39.360Z,2.20
2023-05-09T16:53:06.814Z,2.83
2023-05-09T16:55:34.330Z,2.90
2023-05-09T16:58:01.906Z,2.45
2023-05-09T17:00:29.479Z,2.83
2023-05-09T17:02:56.978Z,2.67
2023-05-09T17:05:24.898Z,2.90
2023-05-09T17:07:52.364Z,2.78
2023-05-09T17:10:19.960Z,3.10
2023-05-09T17:12:47.751Z,2.67
2023-05-09T17:15:15.251Z,3.00
2023-05-09T17:17:42.861Z,2.60
2023-05-09T17:20:11.793Z,2.90
2023-05-09T17:22:39.515Z,2.67
2023-05-09T17:25:07.784Z,3.08
2023-05-09T17:27:35.354Z,3.03
2023-05-09T17:30:03.349Z,2.75
2023-05-09T17:32:30.890Z,2.60
2023-05-09T17:34:58.547Z,3.00
2023-05-09T17:37:26.260Z,2.58
2023-05-09T17:39:54.355Z,2.60
2023-05-09T17:42:21.864Z,2.65
2023-05-09T17:44:50.515Z,2.40
2023-05-09T17:47:18.018Z,2.67
2023-05-09T17:49:45.519Z,2.75
2023-05-09T17:52:13.135Z,2.65
2023-05-09T17:54:41.542Z,2.55
2023-05-09T17:57:09.282Z,2.83
2023-05-09T17:59:40.519Z,3.00
2023-05-09T18:02:08.439Z,2.70
2023-05-09T18:04:36.000Z,2.58
2023-05-09T18:07:04.178Z,2.45
2023-05-09T18:09:31.910Z,2.63
2023-05-09T18:11:59.451Z,2.33
2023-05-09T18:14:27.250Z,2.47
2023-05-09T18:16:54.793Z,2.60
2023-05-09T18:19:22.296Z,2.92
2023-05-09T18:21:49.777Z,2.47
2023-05-09T18:24:19.472Z,2.85
2023-05-09T18:26:48.459Z,2.40
2023-05-09T18:29:17.273Z,3.05
2023-05-09T18:31:44.895Z,2.60
2023-05-09T18:34:13.075Z,2.60
2023-05-09T18:36:40.747Z,2.70
2023-05-09T18:39:09.075Z,2.80
2023-05-09T18:41:36.535Z,3.05
2023-05-09T18:44:04.303Z,3.00
2023-05-09T18:46:33.844Z,2.70
2023-05-09T18:49:03.128Z,3.22
2023-05-09T18:51:35.820Z,2.92
2023-05-09T18:54:03.528Z,2.97
2023-05-09T18:56:31.026Z,2.75
2023-05-09T18:58:58.549Z,3.15
2023-05-09T19:01:26.191Z,3.30
2023-05-09T19:03:55.262Z,3.20
2023-05-09T19:06:24.148Z,2.75
2023-05-09T19:08:52.249Z,2.80
2023-05-09T19:11:19.988Z,2.85
2023-05-09T19:13:50.353Z,2.80
2023-05-09T19:16:19.886Z,3.38
2023-05-09T19:18:48.102Z,3.35
2023-05-09T19:21:16.133Z,2.83
2023-05-09T19:23:47.789Z,3.00
2023-05-09T19:26:17.025Z,3.45
2023-05-09T19:28:46.250Z,3.25
2023-05-09T19:31:15.110Z,3.00
2023-05-09T19:33:45.699Z,3.15
2023-05-09T19:36:13.848Z,2.67
2023-05-09T19:38:41.404Z,3.15
2023-05-09T19:41:08.948Z,2.97
2023-05-09T19:43:36.544Z,3.03
2023-05-09T19:46:04.038Z,2.67
2023-05-09T19:48:31.608Z,3.33
2023-05-09T19:50:59.185Z,3.45
2023-05-09T19:53:26.717Z,3.70
2023-05-09T19:55:54.318Z,3.13
2023-05-09T19:58:21.834Z,3.20
2023-05-09T20:00:49.380Z,3.28
2023-05-09T20:03:17.025Z,3.15
2023-05-09T20:05:44.630Z,3.33
2023-05-09T20:08:12.200Z,3.20
2023-05-09T20:10:39.719Z,3.03
2023-05-09T20:13:07.240Z,2.97
2023-05-09T20:15:34.883Z,3.30
2023-05-09T20:18:03.776Z,3.22
2023-05-09T20:20:34.390Z,3.60
2023-05-09T20:23:02.317Z,3.47
2023-05-09T20:25:29.805Z,3.03
2023-05-09T20:27:57.300Z,3.20
2023-05-09T20:30:24.798Z,3.28
2023-05-09T20:32:52.745Z,2.92
2023-05-09T20:35:20.386Z,3.15
2023-05-09T20:37:47.937Z,3.03
2023-05-09T20:40:15.803Z,3.25
2023-05-09T20:42:43.620Z,3.17
2023-05-09T20:45:11.181Z,2.90
2023-05-09T20:47:39.794Z,3.03
2023-05-09T20:50:07.900Z,3.45
2023-05-09T20:52:35.522Z,3.33
2023-05-09T20:55:03.100Z,3.30
2023-05-09T20:57:30.630Z,3.70
2023-05-09T20:59:58.137Z,2.97
2023-05-09T21:02:25.773Z,3.28
2023-05-09T21:04:53.337Z,3.10
2023-05-09T21:07:20.942Z,3.50
2023-05-09T21:09:48.909Z,3.45
2023-05-09T21:12:16.880Z,3.40
2023-05-09T21:14:44.887Z,3.22
2023-05-09T21:17:12.625Z,3.03
2023-05-09T21:19:40.215Z,3.25
2023-05-09T21:22:07.775Z,3.20
2023-05-09T21:24:35.424Z,3.65
2023-05-09T21:27:02.918Z,3.22
2023-05-09T21:29:30.538Z,3.55
2023-05-09T21:31:57.967Z,3.20
2023-05-09T21:34:25.552Z,3.42
2023-05-09T21:36:52.986Z,2.83
2023-05-09T21:39:20.406Z,3.40
2023-05-09T21:41:47.879Z,3.13
2023-05-09T21:44:15.483Z,3.33
2023-05-09T21:46:46.270Z,3.13
2023-05-09T21:49:16.810Z,3.70
2023-05-09T21:51:44.299Z,3.63
2023-05-09T21:54:11.784Z,3.20
2023-05-09T21:56:39.274Z,2.90
2023-05-09T21:59:06.660Z,3.15
2023-05-09T22:01:34.324Z,3.35
2023-05-09T22:04:02.322Z,3.35
2023-05-09T22:06:29.919Z,3.40
2023-05-09T22:08:57.424Z,3.33
2023-05-09T22:11:24.951Z,4.40
2023-05-09T22:13:52.488Z,3.78
2023-05-09T22:16:20.061Z,3.17
2023-05-09T22:18:47.859Z,3.10
2023-05-09T22:21:15.331Z,3.10
2023-05-09T22:23:43.315Z,3.22
2023-05-09T22:26:11.002Z,3.25
2023-05-09T22:28:38.495Z,3.20
2023-05-09T22:31:07.069Z,2.67
2023-05-09T22:33:34.958Z,3.10
2023-05-09T22:36:02.517Z,2.80
2023-05-09T22:38:30.743Z,2.85
2023-05-09T22:40:58.450Z,2.60
2023-05-09T22:43:28.840Z,2.65
2023-05-09T22:46:01.412Z,2.72
2023-05-09T22:48:29.056Z,3.03
2023-05-09T22:50:56.570Z,2.83
2023-05-09T22:53:23.941Z,2.97
2023-05-09T22:55:52.765Z,2.55
2023-05-09T22:58:20.266Z,2.90
2023-05-09T23:00:47.786Z,2.38
2023-05-09T23:03:15.535Z,2.33
2023-05-09T23:05:43.625Z,2.50
2023-05-09T23:08:11.191Z,2.30
2023-05-09T23:10:38.907Z,2.42
2023-05-09T23:13:06.473Z,2.58
2023-05-09T23:15:34.026Z,2.80
2023-05-09T23:18:02.084Z,2.70
2023-05-09T23:20:29.634Z,2.60
2023-05-09T23:22:57.071Z,2.70
2023-05-09T23:25:24.609Z,2.67
2023-05-09T23:27:52.039Z,2.58
2023-05-09T23:30:19.589Z,2.53
2023-05-09T23:32:47.198Z,2.67
2023-05-09T23:35:15.115Z,2.50
2023-05-09T23:37:43.035Z,2.67
2023-05-09T23:40:11.056Z,2.60
2023-05-09T23:42:38.469Z,2.58
2023-05-09T23:45:06.856Z,3.03
2023-05-09T23:47:34.287Z,2.90
2023-05-09T23:50:02.031Z,2.55
2023-05-09T23:52:29.502Z,3.00
2023-05-09T23:54:56.960Z,2.45
2023-05-09T23:57:24.396Z,2.78
2023-05-09T23:59:51.975Z,2.92
